Time;durP1;ratioP1;P1;durP2;ratioP2;P2;SDS_P1;SDS_P2;PMS_P1;PMS_P2;Temp;Humidity;BMP_temperature;BMP_pressure;BME280_temperature;BME280_humidity;BME280_pressure;Samples;Min_cycle;Max_cycle;Signal;HPM_P1;HPM_P2
2022/10/28 00:02:03;;;;;;;43.20;24.42;;;;;;;11.48;100.00;99873.47;5035440;28;20087;-63
2022/10/28 00:04:28;;;;;;;38.65;24.30;;;;;;;11.52;100.00;99874.31;5037388;28;21269;-63
2022/10/28 00:06:54;;;;;;;44.83;24.35;;;;;;;11.47;100.00;99874.34;5038222;28;20068;-64
2022/10/28 00:09:20;;;;;;;49.75;26.92;;;;;;;11.37;100.00;99862.41;5019780;28;20634;-65
2022/10/28 00:11:48;;;;;;;36.90;22.58;;;;;;;11.41;100.00;99867.50;5044263;28;20118;-64
2022/10/28 00:14:14;;;;;;;34.10;22.58;;;;;;;11.39;100.00;99869.22;5017923;28;20056;-65
2022/10/28 00:16:39;;;;;;;39.72;24.38;;;;;;;11.37;100.00;99865.78;5020933;28;20041;-65
2022/10/28 00:19:07;;;;;;;42.03;24.88;;;;;;;11.40;100.00;99864.94;5021612;28;20484;-64
2022/10/28 00:21:35;;;;;;;48.20;25.25;;;;;;;11.43;100.00;99864.94;5042225;28;20040;-63
2022/10/28 00:24:00;;;;;;;39.60;24.23;;;;;;;11.42;100.00;99860.66;5037404;28;20033;-63
2022/10/28 00:26:29;;;;;;;45.85;23.48;;;;;;;11.27;100.00;99841.03;5021901;28;20060;-63
2022/10/28 00:28:57;;;;;;;35.75;23.08;;;;;;;11.17;100.00;99841.03;5040542;28;20237;-63
2022/10/28 00:31:25;;;;;;;46.28;24.00;;;;;;;11.18;100.00;99840.19;5043419;28;20032;-63
2022/10/28 00:33:52;;;;;;;42.42;24.45;;;;;;;11.32;100.00;99859.84;5042196;28;20059;-63
2022/10/28 00:36:26;;;;;;;45.55;25.35;;;;;;;11.39;100.00;99870.94;5042548;28;20396;-63
2022/10/28 00:38:54;;;;;;;43.05;23.95;;;;;;;11.29;100.00;99854.69;5041627;28;20628;-63
2022/10/28 00:41:34;;;;;;;40.38;23.17;;;;;;;11.44;100.00;99871.78;5040516;28;20076;-63
2022/10/28 00:44:21;;;;;;;41.10;24.35;;;;;;;11.38;100.00;99854.69;5041161;28;20041;-63
2022/10/28 00:46:50;;;;;;;36.42;21.48;;;;;;;11.35;100.00;99844.41;5042186;28;20053;-64
2022/10/28 00:49:29;;;;;;;37.58;20.95;;;;;;;11.44;100.00;99861.50;5023032;28;20079;-63
2022/10/28 00:52:19;;;;;;;33.22;22.30;;;;;;;11.23;100.00;99825.63;5041916;28;20045;-63
2022/10/28 00:54:45;;;;;;;39.28;20.70;;;;;;;11.24;100.00;99841.03;5040542;28;20084;-63
2022/10/28 00:57:16;;;;;;;38.00;21.50;;;;;;;11.24;100.00;99853.88;5041206;28;20041;-64
2022/10/28 00:59:46;;;;;;;39.38;21.25;;;;;;;11.16;100.00;99839.34;5040833;28;20041;-63
2022/10/28 01:02:11;;;;;;;36.63;21.83;;;;;;;11.29;100.00;99861.53;5040085;28;20067;-64
2022/10/28 01:04:38;;;;;;;33.85;21.25;;;;;;;11.34;100.00;99860.69;5038119;28;20488;-64
2022/10/28 01:07:05;;;;;;;30.98;19.90;;;;;;;11.27;100.00;99851.28;5024873;28;20462;-64
2022/10/28 01:09:30;;;;;;;29.33;19.33;;;;;;;11.28;100.00;99854.72;5040838;28;20045;-64
2022/10/28 01:12:15;;;;;;;28.08;18.35;;;;;;;11.26;100.00;99862.41;5041149;28;20505;-64
2022/10/28 01:15:13;;;;;;;30.15;20.42;;;;;;;11.25;100.00;99857.25;5040883;28;20457;-63
2022/10/28 01:17:53;;;;;;;35.15;21.48;;;;;;;11.27;100.00;99850.44;5042113;28;20068;-64
2022/10/28 01:20:54;;;;;;;35.63;20.27;;;;;;;11.18;100.00;99853.00;5016626;28;20037;-64
2022/10/28 01:23:46;;;;;;;33.30;19.75;;;;;;;11.20;100.00;99853.88;5040165;28;20893;-64
2022/10/28 01:26:22;;;;;;;33.58;19.15;;;;;;;11.23;100.00;99853.88;5041054;28;20516;-64
2022/10/28 01:29:00;;;;;;;32.03;20.42;;;;;;;11.24;100.00;99851.31;5041423;28;20041;-65
2022/10/28 01:32:06;;;;;;;31.05;20.58;;;;;;;11.19;100.00;99855.59;5040377;28;20537;-64
2022/10/28 01:34:56;;;;;;;37.42;21.70;;;;;;;11.21;100.00;99850.44;4988680;28;20059;-64
2022/10/28 01:38:08;;;;;;;33.40;21.02;;;;;;;11.27;100.00;99842.72;5041723;28;20041;-64
2022/10/28 01:40:43;;;;;;;28.70;18.55;;;;;;;11.10;100.00;99829.06;4934620;28;20046;-64
2022/10/28 01:43:21;;;;;;;33.72;20.15;;;;;;;11.22;100.00;99855.56;4953549;28;20211;-64
2022/10/28 01:46:06;;;;;;;33.40;20.25;;;;;;;11.27;100.00;99853.84;4954623;28;20055;-65
2022/10/28 01:48:32;;;;;;;;;;;;;;;11.22;100.00;99854.72;4956337;28;20047;-64
2022/10/28 01:51:35;;;;;;;33.92;19.23;;;;;;;11.21;100.00;99859.00;4954512;28;19921;-63
2022/10/28 01:54:06;;;;;;;27.05;18.42;;;;;;;11.13;100.00;99850.44;4939310;28;20136;-63
2022/10/28 01:56:36;;;;;;;30.00;18.77;;;;;;;11.20;100.00;99854.72;4942572;28;20050;-63
2022/10/28 01:59:04;;;;;;;32.25;18.45;;;;;;;11.24;100.00;99848.75;4942003;28;20557;-64
2022/10/28 02:01:31;;;;;;;30.17;19.35;;;;;;;11.13;100.00;99834.19;4929358;28;20058;-64
2022/10/28 02:03:57;;;;;;;30.60;19.40;;;;;;;11.21;100.00;99846.16;4941652;28;20055;-64
2022/10/28 02:06:27;;;;;;;29.77;18.90;;;;;;;11.08;100.00;99823.06;4925070;28;20391;-63
2022/10/28 02:09:23;;;;;;;29.17;19.10;;;;;;;11.22;100.00;99840.16;4941563;28;20065;-61
2022/10/28 02:11:49;;;;;;;28.92;19.00;;;;;;;11.23;100.00;99841.88;4942175;28;20050;-61
2022/10/28 02:14:47;;;;;;;31.35;18.75;;;;;;;11.19;100.00;99834.19;4941178;28;20043;-61
2022/10/28 02:17:21;;;;;;;28.65;18.67;;;;;;;11.17;100.00;99833.31;4959000;28;20050;-62
2022/10/28 02:19:50;;;;;;;29.83;18.15;;;;;;;11.12;100.00;99833.34;4992867;28;20060;-62
2022/10/28 02:22:48;;;;;;;23.15;17.20;;;;;;;11.19;100.00;99829.06;4994499;28;20095;-61
2022/10/28 02:25:24;;;;;;;25.83;16.33;;;;;;;11.09;100.00;99823.09;4995223;28;20054;-61
2022/10/28 02:28:01;;;;;;;25.08;16.27;;;;;;;11.12;100.00;99829.94;4997864;28;20132;-61
2022/10/28 02:30:37;;;;;;;27.17;17.17;;;;;;;11.10;100.00;99829.06;5004090;28;20084;-61
2022/10/28 02:33:09;;;;;;;30.33;17.65;;;;;;;11.07;100.00;99835.09;5019975;28;20527;-61
2022/10/28 02:35:51;;;;;;;28.00;18.70;;;;;;;11.09;100.00;99832.50;5020288;28;20052;-61
2022/10/28 02:38:26;;;;;;;27.35;16.33;;;;;;;11.09;100.00;99828.22;5019740;28;20041;-62
2022/10/28 02:40:59;;;;;;;27.95;18.48;;;;;;;11.09;100.00;99822.22;5020558;28;20048;-62
2022/10/28 02:43:26;;;;;;;25.52;17.38;;;;;;;10.97;100.00;99800.88;5019567;28;20841;-63
2022/10/28 02:45:57;;;;;;;28.80;18.13;;;;;;;11.06;100.00;99805.13;5020077;28;20029;-63
2022/10/28 02:48:38;;;;;;;23.63;16.83;;;;;;;11.09;100.00;99802.56;5020965;28;20522;-60
2022/10/28 02:51:36;;;;;;;25.27;17.13;;;;;;;11.09;100.00;99809.41;5019943;28;20124;-61
2022/10/28 02:54:06;;;;;;;22.98;16.27;;;;;;;11.09;100.00;99810.25;4986352;28;20312;-61
2022/10/28 02:56:38;;;;;;;27.60;17.42;;;;;;;11.07;100.00;99798.28;5020107;28;20088;-61
2022/10/28 02:59:11;;;;;;;29.10;18.23;;;;;;;11.06;100.00;99799.16;5020066;28;20072;-61
2022/10/28 03:01:37;;;;;;;30.67;16.90;;;;;;;11.11;100.00;99803.41;5028199;28;20499;-61
2022/10/28 03:04:03;;;;;;;29.13;17.73;;;;;;;11.16;100.00;99800.84;5040073;28;20487;-61
2022/10/28 03:06:29;;;;;;;23.58;16.40;;;;;;;11.07;100.00;99775.19;5039274;28;20033;-62
2022/10/28 03:08:55;;;;;;;29.52;18.00;;;;;;;11.17;100.00;99782.84;5041259;28;20044;-63
2022/10/28 03:11:20;;;;;;;25.80;16.67;;;;;;;11.24;100.00;99807.66;5038360;28;20041;-62
2022/10/28 03:13:46;;;;;;;23.42;15.13;;;;;;;11.43;100.00;99790.47;5019883;28;20242;-69
2022/10/28 03:16:11;;;;;;;25.67;15.38;;;;;;;11.60;100.00;99786.13;5039544;28;20033;-69
2022/10/28 03:18:37;;;;;;;22.63;15.45;;;;;;;11.64;100.00;99808.34;5005823;28;20656;-69
2022/10/28 03:21:02;;;;;;;23.55;15.45;;;;;;;11.52;100.00;99805.84;5020350;28;20903;-70
2022/10/28 03:23:28;;;;;;;21.27;15.43;;;;;;;11.47;100.00;99799.88;5039128;28;20114;-70
2022/10/28 03:25:54;;;;;;;21.08;14.55;;;;;;;11.75;100.00;99798.91;5036974;28;20472;-70
2022/10/28 03:28:20;;;;;;;23.65;15.98;;;;;;;11.69;100.00;99803.19;5040267;28;20051;-63
2022/10/28 03:30:45;;;;;;;23.48;16.23;;;;;;;11.61;100.00;99803.25;5040827;28;20112;-67
2022/10/28 03:33:11;;;;;;;21.42;15.18;;;;;;;11.54;100.00;99803.28;5006118;28;20469;-68
2022/10/28 03:35:37;;;;;;;20.98;14.95;;;;;;;11.46;100.00;99783.59;5039000;28;20044;-68
2022/10/28 03:38:02;;;;;;;21.60;15.38;;;;;;;11.72;100.00;99800.63;5039021;28;20045;-67
2022/10/28 03:40:28;;;;;;;23.38;15.35;;;;;;;11.69;100.00;99798.91;5003398;28;20044;-68
2022/10/28 03:42:53;;;;;;;21.95;14.75;;;;;;;11.58;100.00;99785.28;5018259;28;20071;-69
2022/10/28 03:45:19;;;;;;;18.45;13.32;;;;;;;11.80;100.00;99784.31;5038539;28;20040;-69
2022/10/28 03:47:44;;;;;;;21.63;15.18;;;;;;;11.90;100.00;99793.69;5039143;28;20123;-68
2022/10/28 03:50:10;;;;;;;21.98;14.52;;;;;;;11.80;100.00;99793.75;5038168;28;20049;-69
2022/10/28 03:52:36;;;;;;;18.92;14.70;;;;;;;11.83;100.00;99793.75;5037057;28;20036;-69
2022/10/28 03:55:01;;;;;;;19.88;14.27;;;;;;;11.92;100.00;99787.72;5038068;28;20557;-68
2022/10/28 03:57:32;;;;;;;21.50;13.50;;;;;;;11.90;100.00;99798.84;5037837;28;20041;-68
2022/10/28 03:59:57;;;;;;;21.80;14.02;;;;;;;11.76;100.00;99776.63;5039538;28;20045;-69
2022/10/28 04:02:23;;;;;;;19.50;14.02;;;;;;;11.72;100.00;99793.78;5038923;28;20381;-68
2022/10/28 04:04:49;;;;;;;22.67;14.40;;;;;;;11.52;100.00;99780.16;5040018;28;20156;-69
2022/10/28 04:07:14;;;;;;;20.83;14.98;;;;;;;11.46;100.00;99775.91;5037863;28;20060;-68
2022/10/28 04:09:40;;;;;;;22.92;15.15;;;;;;;11.43;100.00;99793.91;5039845;28;20477;-68
2022/10/28 04:12:06;;;;;;;24.02;15.05;;;;;;;11.36;100.00;99793.94;5037864;28;20710;-69
2022/10/28 04:14:31;;;;;;;20.25;14.30;;;;;;;11.20;100.00;99785.41;5031276;28;20561;-68
2022/10/28 04:16:57;;;;;;;20.83;14.38;;;;;;;11.25;100.00;99793.94;5026757;28;20052;-69
2022/10/28 04:19:23;;;;;;;24.63;16.40;;;;;;;11.17;100.00;99793.13;5039155;28;20045;-70
2022/10/28 04:21:49;;;;;;;24.58;15.82;;;;;;;11.16;100.00;99788.84;5034643;28;20041;-68
2022/10/28 04:24:14;;;;;;;23.38;13.60;;;;;;;10.99;100.00;99776.06;5038450;28;20083;-69
2022/10/28 04:26:40;;;;;;;22.38;15.57;;;;;;;11.12;100.00;99796.56;5036838;28;20128;-69
2022/10/28 04:29:06;;;;;;;24.55;15.45;;;;;;;11.03;100.00;99781.19;5040286;28;20041;-69
2022/10/28 04:31:32;;;;;;;20.05;13.32;;;;;;;10.97;100.00;99782.91;5039192;28;20075;-68
2022/10/28 04:33:57;;;;;;;22.98;14.35;;;;;;;11.07;100.00;99799.16;5038972;28;20124;-69
2022/10/28 04:36:23;;;;;;;20.65;13.25;;;;;;;11.09;100.00;99809.41;5039680;28;20055;-68
2022/10/28 04:38:50;;;;;;;21.08;14.55;;;;;;;10.99;100.00;99806.84;5020602;28;20621;-68
2022/10/28 04:41:16;;;;;;;19.58;13.77;;;;;;;11.00;100.00;99808.56;5017166;28;20153;-69
2022/10/28 04:43:42;;;;;;;22.08;14.35;;;;;;;10.92;100.00;99796.59;5035256;28;20052;-67
2022/10/28 04:46:08;;;;;;;22.13;14.25;;;;;;;11.01;100.00;99799.16;5039895;28;20040;-68
2022/10/28 04:48:34;;;;;;;19.95;14.13;;;;;;;10.99;100.00;99793.16;5038488;28;20570;-67
2022/10/28 04:50:59;;;;;;;22.00;14.07;;;;;;;10.91;100.00;99782.06;5038342;28;20497;-68
2022/10/28 04:53:25;;;;;;;20.92;14.02;;;;;;;10.99;100.00;99793.16;5038393;28;20041;-69
2022/10/28 04:55:55;;;;;;;20.73;13.48;;;;;;;10.99;100.00;99786.31;5040281;28;20045;-68
2022/10/28 04:58:20;;;;;;;22.95;14.85;;;;;;;10.96;100.00;99776.06;5042805;28;20072;-68
2022/10/28 05:00:46;;;;;;;20.85;14.02;;;;;;;10.93;100.00;99776.09;5024368;28;20444;-68
2022/10/28 05:03:11;;;;;;;18.63;12.50;;;;;;;10.83;100.00;99770.94;5007858;28;20098;-68
2022/10/28 05:05:37;;;;;;;21.63;14.48;;;;;;;10.78;100.00;99770.09;5042383;28;20063;-68
2022/10/28 05:08:02;;;;;;;23.95;14.30;;;;;;;10.89;100.00;99787.22;5039852;28;20071;-68
2022/10/28 05:10:29;;;;;;;20.27;12.43;;;;;;;10.89;100.00;99783.78;5041000;28;20052;-68
2022/10/28 05:12:54;;;;;;;18.90;13.15;;;;;;;10.76;100.00;99772.69;5039977;28;20506;-68
2022/10/28 05:15:20;;;;;;;21.30;13.60;;;;;;;10.82;100.00;99776.97;5042962;28;20059;-68
2022/10/28 05:17:46;;;;;;;19.85;14.05;;;;;;;10.84;100.00;99778.66;5040562;28;20155;-70
2022/10/28 05:20:15;;;;;;;20.70;12.70;;;;;;;10.81;100.00;99785.50;5042380;28;20509;-68
2022/10/28 05:22:49;;;;;;;17.35;12.65;;;;;;;10.73;100.00;99779.53;5039611;28;20500;-70
2022/10/28 05:25:15;;;;;;;17.08;12.63;;;;;;;10.81;100.00;99791.50;5023768;28;20072;-69
2022/10/28 05:27:41;;;;;;;20.65;13.73;;;;;;;10.84;100.00;99785.50;5041170;28;20029;-69
2022/10/28 05:30:07;;;;;;;16.95;12.43;;;;;;;10.73;100.00;99774.41;5041012;28;20045;-69
2022/10/28 05:32:33;;;;;;;18.67;13.25;;;;;;;10.82;100.00;99793.19;5020768;28;20436;-67
2022/10/28 05:34:58;;;;;;;21.85;13.30;;;;;;;10.64;100.00;99774.41;5023683;28;20427;-68
2022/10/28 05:37:24;;;;;;;20.30;12.93;;;;;;;10.72;100.00;99794.06;5038033;28;20504;-68
2022/10/28 05:39:50;;;;;;;21.63;13.55;;;;;;;10.66;100.00;99786.38;5039984;28;20745;-69
2022/10/28 05:42:15;;;;;;;19.10;12.07;;;;;;;10.64;100.00;99798.34;5040731;28;20057;-68
2022/10/28 05:44:41;;;;;;;23.58;13.88;;;;;;;10.58;100.00;99782.97;5019519;28;20048;-68
2022/10/28 05:47:07;;;;;;;21.02;13.20;;;;;;;10.58;100.00;99782.97;5026949;28;20036;-68
2022/10/28 05:49:32;;;;;;;20.60;13.30;;;;;;;10.59;100.00;99788.94;5040209;28;20047;-67
2022/10/28 05:51:58;;;;;;;23.30;14.40;;;;;;;10.51;100.00;99771.00;5023507;28;20029;-66
2022/10/28 05:54:23;;;;;;;24.45;15.63;;;;;;;10.62;100.00;99784.66;5038706;28;20223;-67
2022/10/28 05:56:49;;;;;;;24.80;15.32;;;;;;;10.60;100.00;99776.13;5041179;28;20519;-68
2022/10/28 05:59:14;;;;;;;25.27;14.45;;;;;;;10.61;100.00;99777.81;5040565;28;20459;-67
2022/10/28 06:01:40;;;;;;;26.40;14.57;;;;;;;10.52;100.00;99773.53;5040921;28;20055;-66
2022/10/28 06:04:06;;;;;;;25.45;14.50;;;;;;;10.49;100.00;99782.97;5040582;28;20055;-67
2022/10/28 06:06:32;;;;;;;23.90;13.98;;;;;;;10.42;100.00;99782.13;5039428;28;20041;-68
2022/10/28 06:08:57;;;;;;;25.23;16.30;;;;;;;10.50;100.00;99800.91;5040476;28;20555;-68
2022/10/28 06:11:23;;;;;;;20.77;14.73;;;;;;;10.47;100.00;99806.06;5041323;28;20487;-68
2022/10/28 06:13:48;;;;;;;26.38;15.50;;;;;;;10.48;100.00;99804.34;5040646;28;20041;-68
2022/10/28 06:16:14;;;;;;;20.52;13.55;;;;;;;10.39;100.00;99810.31;5040273;28;20128;-67
2022/10/28 06:18:40;;;;;;;21.88;14.23;;;;;;;10.38;100.00;99816.28;5019153;28;20451;-68
2022/10/28 06:21:05;;;;;;;20.67;13.52;;;;;;;10.45;100.00;99830.81;5040917;28;20041;-68
2022/10/28 06:23:31;;;;;;;20.30;12.85;;;;;;;10.28;100.00;99812.00;5037187;28;20033;-66
2022/10/28 06:25:58;;;;;;;18.00;12.15;;;;;;;10.40;100.00;99829.94;5040122;28;20075;-68
2022/10/28 06:28:24;;;;;;;15.95;11.38;;;;;;;10.30;100.00;99837.66;5041827;28;20107;-67
2022/10/28 06:30:49;;;;;;;17.80;12.25;;;;;;;10.16;100.00;99808.56;5039996;28;20553;-68
2022/10/28 06:33:15;;;;;;;19.10;11.75;;;;;;;10.25;100.00;99821.41;5041509;28;20036;-67
2022/10/28 06:35:41;;;;;;;16.95;11.40;;;;;;;10.18;100.00;99804.31;5040365;28;20100;-67
2022/10/28 06:38:06;;;;;;;17.52;12.10;;;;;;;10.30;100.00;99818.00;5041328;28;20496;-67
2022/10/28 06:40:32;;;;;;;16.05;11.63;;;;;;;10.25;100.00;99799.19;5040873;28;20079;-67
2022/10/28 06:42:59;;;;;;;17.58;12.00;;;;;;;10.23;100.00;99820.53;5040065;28;20124;-67
2022/10/28 06:45:26;;;;;;;17.48;11.82;;;;;;;10.33;100.00;99828.25;5038892;28;20040;-68
2022/10/28 06:48:00;;;;;;;18.38;10.82;;;;;;;10.31;100.00;99826.56;5017702;28;20049;-68
2022/10/28 06:50:28;;;;;;;17.53;11.63;;;;;;;10.24;100.00;99827.38;5016623;28;20045;-67
2022/10/28 06:52:56;;;;;;;18.55;11.10;;;;;;;10.23;100.00;99820.53;5025995;28;20291;-67
2022/10/28 06:55:22;;;;;;;16.23;12.00;;;;;;;10.36;100.00;99823.13;5039622;28;20526;-68
2022/10/28 06:57:48;;;;;;;21.25;12.07;;;;;;;10.39;100.00;99818.00;5039383;28;20068;-70
2022/10/28 07:00:14;;;;;;;17.45;12.15;;;;;;;10.51;100.00;99829.97;5034216;28;20121;-68
2022/10/28 07:02:40;;;;;;;17.42;11.20;;;;;;;10.52;100.00;99824.00;5058189;28;20052;-68
2022/10/28 07:05:06;;;;;;;16.85;10.85;;;;;;;10.63;100.00;99834.25;5059027;28;20114;-67
2022/10/28 07:07:31;;;;;;;17.40;12.45;;;;;;;10.58;100.00;99816.28;5061424;28;20505;-64
2022/10/28 07:09:58;;;;;;;17.40;12.63;;;;;;;10.62;100.00;99835.09;5026125;28;20041;-66
2022/10/28 07:12:24;;;;;;;21.88;13.82;;;;;;;10.68;100.00;99838.53;5019896;28;20131;-70
2022/10/28 07:14:49;;;;;;;19.33;12.93;;;;;;;10.62;100.00;99835.94;5059977;28;20053;-67
2022/10/28 07:17:15;;;;;;;18.15;11.68;;;;;;;10.79;100.00;99846.22;5058984;28;20159;-64
2022/10/28 07:19:40;;;;;;;20.35;13.32;;;;;;;10.58;100.00;99833.38;5037898;28;20587;-73
2022/10/28 07:22:06;;;;;;;18.30;12.20;;;;;;;10.71;100.00;99847.91;5059358;28;20041;-66
2022/10/28 07:24:31;;;;;;;17.42;11.30;;;;;;;10.79;100.00;99844.50;5058881;28;20554;-63
2022/10/28 07:26:57;;;;;;;17.60;11.77;;;;;;;10.83;100.00;99835.94;5059771;28;20040;-66
2022/10/28 07:29:23;;;;;;;18.23;11.32;;;;;;;10.89;100.00;99848.78;5059395;28;20047;-65
2022/10/28 07:31:52;;;;;;;15.82;10.57;;;;;;;10.90;100.00;99827.41;5056210;28;20563;-68
2022/10/28 07:34:19;;;;;;;15.32;10.82;;;;;;;10.90;100.00;99832.53;5055502;28;20879;-68
2022/10/28 07:36:48;;;;;;;20.02;11.63;;;;;;;10.94;100.00;99838.53;5057741;28;20033;-67
2022/10/28 07:39:14;;;;;;;17.85;11.80;;;;;;;11.06;100.00;99843.63;5059670;28;20487;-67
2022/10/28 07:41:39;;;;;;;18.17;12.18;;;;;;;11.10;100.00;99835.06;5059886;28;20062;-67
2022/10/28 07:44:05;;;;;;;18.08;12.55;;;;;;;10.90;100.00;99822.28;5041581;28;20607;-68
2022/10/28 07:46:31;;;;;;;19.20;12.98;;;;;;;11.12;100.00;99843.59;5056308;28;20131;-68
2022/10/28 07:48:56;;;;;;;21.88;12.43;;;;;;;11.06;100.00;99837.63;5040001;28;20048;-67
2022/10/28 07:51:22;;;;;;;21.05;12.20;;;;;;;11.17;100.00;99843.59;5058339;28;20064;-68
2022/10/28 07:53:48;;;;;;;18.42;12.05;;;;;;;11.16;100.00;99834.22;5059275;28;20047;-67
2022/10/28 07:56:13;;;;;;;17.08;12.13;;;;;;;11.17;100.00;99828.19;5040460;28;20143;-68
2022/10/28 07:58:41;;;;;;;16.17;11.10;;;;;;;11.28;100.00;99839.31;5041218;28;20083;-68
2022/10/28 08:01:08;;;;;;;18.23;10.95;;;;;;;11.24;100.00;99822.22;5039872;28;20048;-67
2022/10/28 08:03:35;;;;;;;18.83;13.25;;;;;;;11.29;100.00;99834.16;5040902;28;20037;-64
2022/10/28 08:06:08;;;;;;;16.17;12.38;;;;;;;11.44;100.00;99846.09;5059057;28;20468;-67
2022/10/28 08:08:35;;;;;;;15.77;10.93;;;;;;;11.66;100.00;99852.03;5057820;28;20048;-69
2022/10/28 08:11:12;;;;;;;16.80;11.38;;;;;;;11.72;100.00;99846.88;5059410;28;20040;-71
2022/10/28 08:13:37;;;;;;;16.45;11.52;;;;;;;11.69;100.00;99840.03;5058985;28;20032;-70
2022/10/28 08:16:03;;;;;;;17.88;11.52;;;;;;;11.54;100.00;99832.38;5056644;28;20047;-69
2022/10/28 08:18:28;;;;;;;18.95;12.10;;;;;;;11.54;100.00;99852.94;5059516;28;20258;-71
2022/10/28 08:20:58;;;;;;;19.42;12.38;;;;;;;11.48;100.00;99857.22;5058041;28;20060;-67
2022/10/28 08:23:23;;;;;;;15.02;11.13;;;;;;;11.55;100.00;99854.63;5058104;28;20044;-68
2022/10/28 08:25:50;;;;;;;18.42;11.85;;;;;;;11.55;100.00;99859.75;5058494;28;20056;-68
2022/10/28 08:28:16;;;;;;;16.85;10.75;;;;;;;11.54;100.00;99847.81;5059801;28;20444;-68
2022/10/28 08:30:42;;;;;;;16.45;11.55;;;;;;;11.45;100.00;99832.41;5039732;28;20044;-66
2022/10/28 08:33:08;;;;;;;15.40;11.30;;;;;;;11.62;100.00;99851.19;5061604;28;20173;-68
2022/10/28 08:35:34;;;;;;;18.50;12.05;;;;;;;11.64;100.00;99828.03;5062214;28;20029;-68
2022/10/28 08:38:01;;;;;;;17.95;11.90;;;;;;;11.93;100.00;99843.34;5045266;28;20048;-67
2022/10/28 08:41:02;;;;;;;19.17;11.15;;;;;;;12.16;100.00;99841.53;5062682;28;20040;-67
2022/10/28 08:43:56;;;;;;;18.17;11.25;;;;;;;12.19;100.00;99829.50;5052721;28;20048;-68
2022/10/28 08:46:25;;;;;;;16.65;11.95;;;;;;;12.30;100.00;99840.59;5060441;28;20115;-67
2022/10/28 08:48:50;;;;;;;17.20;11.52;;;;;;;12.23;100.00;99841.47;5063309;28;20143;-67
2022/10/28 08:51:40;;;;;;;17.15;10.85;;;;;;;12.09;100.00;99827.88;5062435;28;20045;-67
2022/10/28 08:54:19;;;;;;;15.32;10.95;;;;;;;12.15;100.00;99845.81;5061922;28;20037;-68
2022/10/28 08:56:47;;;;;;;14.43;10.77;;;;;;;11.96;100.00;99856.22;5062412;28;20036;-67
2022/10/28 08:59:26;;;;;;;14.07;11.25;;;;;;;11.89;100.00;99845.94;5062026;28;20040;-67
2022/10/28 09:01:58;;;;;;;19.23;12.63;;;;;;;12.01;100.00;99846.78;5062004;28;20048;-67
2022/10/28 09:04:36;;;;;;;18.45;11.98;;;;;;;11.95;100.00;99834.78;5059573;28;20040;-67
2022/10/28 09:07:03;;;;;;;14.23;11.40;;;;;;;12.00;100.00;99834.78;5061784;28;20136;-68
2022/10/28 09:09:29;;;;;;;17.48;11.63;;;;;;;12.14;100.00;99854.38;5060999;28;20047;-68
2022/10/28 09:12:24;;;;;;;14.10;10.73;;;;;;;12.20;100.00;99858.66;5060866;28;20044;-68
2022/10/28 09:15:05;;;;;;;12.23;9.20;;;;;;;12.20;100.00;99856.94;4978879;28;20050;-69
2022/10/28 09:17:47;;;;;;;16.13;10.50;;;;;;;12.34;100.00;99855.13;4979412;28;20142;-68
2022/10/28 09:20:31;;;;;;;15.02;10.48;;;;;;;12.50;100.00;99848.16;4979952;28;20058;-68
2022/10/28 09:23:02;;;;;;;19.05;13.30;;;;;;;12.41;100.00;99847.38;4979209;28;20041;-66
2022/10/28 09:25:40;;;;;;;15.38;11.00;;;;;;;12.32;100.00;99861.13;4979844;28;20109;-67
2022/10/28 09:28:34;;;;;;;16.55;11.68;;;;;;;12.26;100.00;99861.19;4975227;28;20058;-68
2022/10/28 09:31:25;;;;;;;15.60;10.43;;;;;;;12.29;100.00;99863.75;4975791;28;20050;-64
2022/10/28 09:34:12;;;;;;;15.95;11.02;;;;;;;12.16;100.00;99860.38;4961802;28;20047;-66
2022/10/28 09:36:48;;;;;;;16.10;11.25;;;;;;;12.13;100.00;99851.84;4974041;28;20145;-65
2022/10/28 09:39:19;;;;;;;15.10;11.13;;;;;;;11.99;100.00;99840.78;4975498;28;20051;-65
2022/10/28 09:41:48;;;;;;;15.18;10.73;;;;;;;12.21;100.00;99838.09;4979010;28;20132;-64
2022/10/28 09:44:31;;;;;;;17.10;11.27;;;;;;;12.31;100.00;99854.28;4978849;28;20434;-64
2022/10/28 09:46:59;;;;;;;14.13;10.93;;;;;;;12.36;100.00;99837.09;4978531;28;20512;-64
2022/10/28 09:49:35;;;;;;;19.73;12.35;;;;;;;12.65;100.00;99848.03;4977214;28;20066;-64
2022/10/28 09:52:07;;;;;;;;;;;;;;;12.80;100.00;99840.19;5032012;28;20044;-64
2022/10/28 09:54:43;;;;;;;14.13;10.40;;;;;;;12.92;100.00;99848.69;5061143;28;19925;-64
2022/10/28 09:57:09;;;;;;;16.10;11.57;;;;;;;12.79;100.00;99827.34;5062997;28;20081;-67
2022/10/28 09:59:35;;;;;;;15.70;12.30;;;;;;;12.90;100.00;99853.81;5060116;28;20036;-64
2022/10/28 10:02:02;;;;;;;16.00;11.52;;;;;;;12.87;100.00;99829.84;5039060;28;20057;-64
2022/10/28 10:04:30;;;;;;;13.15;10.93;;;;;;;13.06;100.00;99845.13;5061426;28;20045;-64
2022/10/28 10:07:02;;;;;;;14.63;11.38;;;;;;;13.12;100.00;99849.38;5039080;28;20411;-64
2022/10/28 10:09:34;;;;;;;15.95;11.68;;;;;;;13.20;100.00;99851.00;5058365;28;20044;-65
2022/10/28 10:12:09;;;;;;;16.40;12.18;;;;;;;12.86;100.00;99813.53;5060984;28;20432;-65
2022/10/28 10:14:56;;;;;;;14.48;11.60;;;;;;;12.86;100.00;99854.72;5060653;28;20447;-65
2022/10/28 10:17:28;;;;;;;14.60;11.25;;;;;;;12.89;100.00;99861.59;5060331;28;20048;-65
2022/10/28 10:20:06;;;;;;;17.73;11.48;;;;;;;13.03;100.00;99860.56;5041949;28;20036;-63
2022/10/28 10:22:41;;;;;;;15.88;12.05;;;;;;;13.26;100.00;99845.81;5059652;28;20040;-64
2022/10/28 10:25:34;;;;;;;14.77;11.90;;;;;;;13.27;100.00;99844.09;5060733;28;20064;-64
2022/10/28 10:28:13;;;;;;;14.73;11.13;;;;;;;13.28;100.00;99827.75;5057812;28;20118;-65
2022/10/28 10:30:46;;;;;;;15.15;10.68;;;;;;;12.88;100.00;99834.13;5061011;28;20046;-64
2022/10/28 10:33:22;;;;;;;18.58;12.50;;;;;;;12.79;100.00;99837.63;5060747;28;20076;-64
2022/10/28 10:36:12;;;;;;;16.45;13.02;;;;;;;13.05;100.00;99829.69;5060947;28;20036;-64
2022/10/28 10:38:53;;;;;;;15.93;11.68;;;;;;;13.28;100.00;99838.06;5058335;28;20032;-67
2022/10/28 10:41:36;;;;;;;14.23;10.57;;;;;;;13.42;100.00;99840.47;5056643;28;20037;-69
2022/10/28 10:44:24;;;;;;;17.25;10.98;;;;;;;13.51;100.00;99842.94;5057135;28;20048;-67
2022/10/28 10:46:58;;;;;;;13.80;11.48;;;;;;;13.61;100.00;99829.97;5056277;28;20048;-69
2022/10/28 10:49:24;;;;;;;13.37;9.60;;;;;;;13.80;100.00;99837.44;5059146;28;20029;-68
2022/10/28 10:51:58;;;;;;;13.57;10.40;;;;;;;13.68;100.00;99802.38;5059527;28;20317;-68
2022/10/28 10:54:26;;;;;;;13.45;10.85;;;;;;;13.84;100.00;99821.06;5058565;28;20436;-68
2022/10/28 10:56:52;;;;;;;12.02;9.93;;;;;;;13.91;100.00;99818.41;5058200;28;20051;-69
2022/10/28 10:59:28;;;;;;;12.48;10.23;;;;;;;13.71;100.00;99800.59;5058267;28;20044;-69
2022/10/28 11:01:57;;;;;;;15.77;10.27;;;;;;;13.55;100.00;99803.41;5060626;28;20098;-68
2022/10/28 11:04:25;;;;;;;15.57;11.70;;;;;;;13.38;100.00;99806.16;5060148;28;20063;-70
2022/10/28 11:06:54;;;;;;;14.90;11.70;;;;;;;13.45;100.00;99828.41;5059714;28;20139;-66
2022/10/28 11:09:26;;;;;;;14.80;11.70;;;;;;;13.47;100.00;99834.41;5024324;28;20032;-66
2022/10/28 11:11:54;;;;;;;12.82;10.90;;;;;;;13.41;100.00;99828.47;5059220;28;20127;-67
2022/10/28 11:14:24;;;;;;;14.18;10.15;;;;;;;13.48;100.00;99797.47;5059662;28;20067;-66
2022/10/28 11:16:59;;;;;;;18.20;11.52;;;;;;;13.68;100.00;99810.97;5059694;28;20341;-67
2022/10/28 11:19:32;;;;;;;13.40;10.43;;;;;;;13.85;100.00;99821.06;5059177;28;20043;-67
2022/10/28 11:22:31;;;;;;;13.35;9.85;;;;;;;13.83;100.00;99827.13;5041732;28;20036;-65
2022/10/28 11:25:07;;;;;;;12.20;10.00;;;;;;;13.90;100.00;99810.69;5059273;28;20051;-68
2022/10/28 11:27:56;;;;;;;22.55;15.05;;;;;;;13.95;100.00;99821.78;5059033;28;20483;-66